Time;durP1;ratioP1;P1;durP2;ratioP2;P2;SDS_P1;SDS_P2;PMS_P1;PMS_P2;Temp;Humidity;BMP_temperature;BMP_pressure;BME280_temperature;BME280_humidity;BME280_pressure;Samples;Min_cycle;Max_cycle;Signal;HPM_P1;HPM_P2
2021/12/28 00:00:18;;;;;;;12.17;8.53;;;7.90;92.90;;;;;;4920068;29;20024;-70
2021/12/28 00:02:46;;;;;;;10.63;7.30;;;7.90;92.90;;;;;;4920131;29;20115;-70
2021/12/28 00:05:12;;;;;;;11.23;7.90;;;7.90;93.10;;;;;;4920282;29;20127;-70
2021/12/28 00:07:39;;;;;;;15.30;9.20;;;7.90;93.20;;;;;;4920138;29;20036;-69
2021/12/28 00:10:08;;;;;;;11.80;8.57;;;7.90;93.20;;;;;;4920267;29;20103;-69
2021/12/28 00:12:36;;;;;;;11.47;8.23;;;7.90;93.20;;;;;;4920142;29;20032;-69
2021/12/28 00:15:19;;;;;;;13.37;8.93;;;7.90;93.10;;;;;;4919858;29;20422;-70
2021/12/28 00:18:02;;;;;;;12.57;8.57;;;7.80;93.10;;;;;;4920025;29;20040;-70
2021/12/28 00:20:40;;;;;;;11.43;8.43;;;7.80;93.00;;;;;;4920012;29;20016;-70
2021/12/28 00:23:10;;;;;;;11.90;8.63;;;7.80;92.90;;;;;;4918718;29;20054;-70
2021/12/28 00:25:36;;;;;;;12.47;8.80;;;7.80;93.00;;;;;;4920108;29;20046;-70
2021/12/28 00:28:03;;;;;;;11.20;7.97;;;7.80;93.10;;;;;;4920139;29;20478;-71
2021/12/28 00:30:29;;;;;;;10.33;8.03;;;7.80;93.00;;;;;;4919880;29;20020;-71
2021/12/28 00:32:56;;;;;;;11.13;7.53;;;7.80;93.00;;;;;;4919716;29;20047;-70
2021/12/28 00:35:25;;;;;;;11.37;7.77;;;7.80;93.10;;;;;;4919949;29;20028;-70
2021/12/28 00:37:51;;;;;;;11.07;8.23;;;7.80;93.10;;;;;;4919722;29;20032;-70
2021/12/28 00:40:17;;;;;;;10.43;8.03;;;7.80;93.00;;;;;;4919671;29;20024;-70
2021/12/28 00:42:43;;;;;;;11.20;7.77;;;7.80;93.00;;;;;;4919512;29;20104;-71
2021/12/28 00:45:09;;;;;;;11.00;8.23;;;7.80;93.00;;;;;;4919431;29;20024;-69
2021/12/28 00:47:35;;;;;;;9.97;8.20;;;7.80;92.90;;;;;;4919382;29;20119;-70
2021/12/28 00:50:02;;;;;;;11.83;7.83;;;7.80;92.90;;;;;;4919718;29;20068;-70
2021/12/28 00:52:28;;;;;;;11.63;8.20;;;7.80;92.90;;;;;;4919517;29;20024;-70
2021/12/28 00:54:53;;;;;;;12.37;8.27;;;7.80;92.90;;;;;;4919454;29;20397;-70
2021/12/28 00:57:19;;;;;;;12.53;8.50;;;7.80;92.90;;;;;;4919537;29;20032;-70
2021/12/28 00:59:45;;;;;;;11.90;8.73;;;7.80;92.90;;;;;;4919266;29;20076;-70
2021/12/28 01:02:10;;;;;;;13.97;8.23;;;7.80;93.00;;;;;;4919180;29;20048;-71
2021/12/28 01:04:36;;;;;;;10.60;8.50;;;7.90;92.90;;;;;;4919290;29;20417;-76
2021/12/28 01:07:02;;;;;;;10.77;7.93;;;7.80;92.80;;;;;;4918159;29;20084;-70
2021/12/28 01:09:31;;;;;;;12.23;8.83;;;7.80;93.20;;;;;;4919129;29;20035;-69
2021/12/28 01:12:01;;;;;;;12.73;8.97;;;7.80;93.10;;;;;;4919132;29;20016;-70
2021/12/28 01:14:28;;;;;;;10.53;8.63;;;7.80;93.20;;;;;;4918787;29;20016;-70
2021/12/28 01:16:54;;;;;;;14.40;9.00;;;7.80;93.30;;;;;;4919061;29;20048;-70
2021/12/28 01:19:20;;;;;;;13.03;9.53;;;7.80;93.40;;;;;;4919168;29;20103;-70
2021/12/28 01:21:45;;;;;;;16.97;10.20;;;7.80;93.50;;;;;;4917354;29;20028;-70
2021/12/28 01:24:11;;;;;;;12.90;9.37;;;7.80;93.50;;;;;;4919080;29;20035;-70
2021/12/28 01:26:37;;;;;;;11.87;10.00;;;7.80;93.60;;;;;;4919092;29;20027;-70
2021/12/28 01:29:03;;;;;;;15.70;11.97;;;7.80;93.60;;;;;;4918892;29;20107;-71
2021/12/28 01:31:29;;;;;;;16.43;11.17;;;7.80;93.70;;;;;;4918899;29;20024;-70
2021/12/28 01:33:56;;;;;;;16.87;11.60;;;7.80;94.00;;;;;;4918812;29;20028;-70
2021/12/28 01:36:21;;;;;;;16.80;12.03;;;7.80;94.00;;;;;;4918637;29;20025;-70
2021/12/28 01:38:47;;;;;;;15.13;11.63;;;7.80;94.00;;;;;;4918801;29;20448;-70
2021/12/28 01:41:13;;;;;;;17.17;13.43;;;7.80;94.00;;;;;;4918751;29;20094;-70
2021/12/28 01:43:40;;;;;;;15.40;13.50;;;7.80;94.00;;;;;;4918602;29;20107;-70
2021/12/28 01:46:07;;;;;;;18.33;14.83;;;7.80;94.00;;;;;;4918678;29;20027;-69
2021/12/28 01:48:36;;;;;;;20.20;14.33;;;7.80;94.00;;;;;;4917378;29;20020;-70
2021/12/28 01:51:11;;;;;;;18.60;14.93;;;7.80;94.00;;;;;;4918192;29;20079;-70
2021/12/28 01:53:37;;;;;;;20.93;15.30;;;7.80;94.00;;;;;;4918445;29;20064;-70
2021/12/28 01:56:10;;;;;;;16.23;13.30;;;7.80;94.00;;;;;;4918817;29;20481;-70
2021/12/28 01:58:36;;;;;;;19.38;14.75;;;7.90;94.10;;;;;;4916364;29;20397;-70
2021/12/28 02:01:03;;;;;;;16.47;13.53;;;7.80;94.10;;;;;;4915501;29;20024;-71
2021/12/28 02:03:30;;;;;;;19.30;13.83;;;7.80;94.10;;;;;;4915673;29;20144;-70
2021/12/28 02:05:55;;;;;;;15.87;13.60;;;7.80;94.20;;;;;;4917630;29;20029;-70
2021/12/28 02:08:22;;;;;;;17.93;14.30;;;7.80;94.20;;;;;;4918044;29;20496;-69
2021/12/28 02:10:50;;;;;;;19.63;14.13;;;7.80;94.30;;;;;;4918228;29;20056;-70
2021/12/28 02:13:16;;;;;;;18.43;14.40;;;7.80;94.40;;;;;;4917825;29;20039;-69
2021/12/28 02:15:44;;;;;;;21.53;15.67;;;7.80;94.40;;;;;;4918025;29;20059;-69
2021/12/28 02:18:13;;;;;;;17.47;14.23;;;7.80;94.50;;;;;;4917692;29;20485;-70
2021/12/28 02:20:40;;;;;;;16.93;13.13;;;7.80;94.50;;;;;;4917880;29;20039;-69
2021/12/28 02:23:06;;;;;;;16.90;13.20;;;7.80;94.50;;;;;;4917792;29;20493;-69
2021/12/28 02:25:32;;;;;;;16.10;13.47;;;7.90;94.40;;;;;;4917815;29;20111;-69
2021/12/28 02:28:00;;;;;;;16.93;12.77;;;7.90;94.40;;;;;;4917582;29;20155;-70
2021/12/28 02:30:26;;;;;;;17.77;12.60;;;7.80;94.30;;;;;;4917722;29;20151;-70
2021/12/28 02:32:52;;;;;;;15.70;13.07;;;7.80;94.40;;;;;;4917449;29;20055;-70
2021/12/28 02:35:21;;;;;;;16.53;12.27;;;7.90;94.40;;;;;;4917428;29;20035;-69
2021/12/28 02:37:47;;;;;;;14.93;11.30;;;7.80;94.60;;;;;;4917323;29;20052;-69
2021/12/28 02:40:17;;;;;;;16.17;11.67;;;7.80;94.30;;;;;;4916395;29;20024;-69
2021/12/28 02:42:42;;;;;;;13.63;10.73;;;7.80;94.30;;;;;;4917190;29;20067;-69
2021/12/28 02:45:15;;;;;;;15.50;11.07;;;7.80;94.40;;;;;;4917376;29;20028;-69
2021/12/28 02:47:44;;;;;;;13.95;10.35;;;7.80;94.10;;;;;;4917484;29;20039;-69
2021/12/28 02:50:14;;;;;;;16.53;11.00;;;7.80;94.20;;;;;;4917335;29;20032;-69
2021/12/28 02:52:40;;;;;;;11.07;8.80;;;7.80;94.20;;;;;;4917063;29;20039;-69
2021/12/28 02:55:09;;;;;;;12.77;10.20;;;7.80;94.10;;;;;;4917185;29;20024;-69
2021/12/28 02:57:35;;;;;;;12.60;8.63;;;7.80;94.00;;;;;;4916778;29;20024;-70
2021/12/28 03:00:05;;;;;;;15.27;9.27;;;7.80;93.70;;;;;;4916928;29;20103;-69
2021/12/28 03:02:31;;;;;;;10.87;8.90;;;7.80;93.60;;;;;;4917134;29;20409;-69
2021/12/28 03:04:56;;;;;;;13.13;9.20;;;7.70;93.70;;;;;;4917432;29;20028;-70
2021/12/28 03:07:22;;;;;;;11.10;8.60;;;7.70;93.70;;;;;;4916983;29;20091;-74
2021/12/28 03:09:49;;;;;;;13.13;9.00;;;7.70;93.70;;;;;;4917359;29;20034;-70
2021/12/28 03:12:14;;;;;;;14.83;9.43;;;7.80;93.70;;;;;;4916983;29;20079;-71
2021/12/28 03:14:40;;;;;;;13.50;8.57;;;7.70;93.70;;;;;;4916987;29;20434;-71
2021/12/28 03:17:06;;;;;;;17.83;9.63;;;7.80;93.70;;;;;;4916709;29;20032;-70
2021/12/28 03:19:32;;;;;;;15.77;9.00;;;7.70;93.60;;;;;;4916964;29;20103;-70
2021/12/28 03:21:58;;;;;;;17.87;9.47;;;7.80;93.40;;;;;;4916845;29;20164;-70
2021/12/28 03:24:25;;;;;;;17.27;9.77;;;7.80;93.40;;;;;;4916862;29;20481;-70
2021/12/28 03:26:50;;;;;;;16.87;9.50;;;7.70;93.20;;;;;;4915585;29;20477;-70
2021/12/28 03:29:16;;;;;;;20.70;9.77;;;7.70;93.30;;;;;;4916204;29;20040;-70
2021/12/28 03:31:42;;;;;;;17.97;9.50;;;7.70;93.30;;;;;;4916569;29;20028;-72
2021/12/28 03:34:08;;;;;;;16.70;9.80;;;7.70;93.30;;;;;;4916483;29;20028;-70
2021/12/28 03:36:34;;;;;;;19.27;9.37;;;7.70;93.20;;;;;;4916525;29;20067;-70
2021/12/28 03:39:01;;;;;;;16.63;9.60;;;7.70;93.20;;;;;;4916711;29;20036;-70
2021/12/28 03:41:29;;;;;;;16.83;9.27;;;7.70;93.20;;;;;;4916505;29;20016;-70
2021/12/28 03:43:55;;;;;;;16.73;8.77;;;7.70;93.10;;;;;;4916281;29;20095;-69
2021/12/28 03:46:24;;;;;;;14.87;8.00;;;7.70;93.10;;;;;;4916588;29;20020;-70
2021/12/28 03:48:50;;;;;;;15.40;8.87;;;7.70;93.20;;;;;;4916597;29;20036;-70
2021/12/28 03:51:17;;;;;;;14.17;8.53;;;7.70;93.20;;;;;;4916688;29;20430;-70
2021/12/28 03:53:43;;;;;;;17.70;9.13;;;7.60;93.20;;;;;;4916477;29;20405;-70
2021/12/28 03:56:10;;;;;;;14.67;8.20;;;7.60;93.20;;;;;;4916334;29;20032;-71
2021/12/28 03:58:38;;;;;;;16.40;8.63;;;7.60;93.00;;;;;;4915420;29;21009;-71
2021/12/28 04:01:05;;;;;;;14.77;7.97;;;7.60;92.90;;;;;;4916518;29;20050;-70
2021/12/28 04:03:30;;;;;;;12.97;8.70;;;7.60;93.00;;;;;;4916409;29;20055;-70
2021/12/28 04:05:56;;;;;;;12.93;7.97;;;7.70;93.00;;;;;;4916437;29;20028;-70
2021/12/28 04:08:24;;;;;;;12.37;8.00;;;7.70;93.00;;;;;;4916459;29;20036;-71
2021/12/28 04:11:02;;;;;;;16.20;8.83;;;7.70;93.00;;;;;;4916450;29;20024;-70
2021/12/28 04:13:28;;;;;;;12.63;8.53;;;7.70;92.90;;;;;;4916411;29;20076;-70
2021/12/28 04:15:53;;;;;;;12.07;7.83;;;7.70;92.90;;;;;;4915083;29;20028;-70
2021/12/28 04:18:20;;;;;;;11.40;7.93;;;7.70;92.80;;;;;;4916580;29;20441;-70
2021/12/28 04:20:48;;;;;;;10.90;7.53;;;7.70;92.70;;;;;;4916460;29;20540;-70
2021/12/28 04:23:13;;;;;;;10.93;7.20;;;7.80;92.40;;;;;;4916151;29;20104;-70
2021/12/28 04:25:40;;;;;;;11.07;7.47;;;7.70;92.40;;;;;;4916493;29;20477;-70
2021/12/28 04:28:05;;;;;;;12.47;7.83;;;7.70;92.50;;;;;;4915281;29;20036;-71
2021/12/28 04:30:31;;;;;;;14.83;8.30;;;7.70;92.70;;;;;;4916152;29;20047;-70
2021/12/28 04:32:57;;;;;;;11.30;7.20;;;7.70;92.80;;;;;;4916391;29;20449;-70
2021/12/28 04:35:23;;;;;;;10.67;7.40;;;7.70;92.80;;;;;;4916363;29;20039;-70
2021/12/28 04:37:48;;;;;;;9.83;7.40;;;7.70;92.70;;;;;;4916161;29;20028;-70
2021/12/28 04:40:15;;;;;;;12.83;6.97;;;7.70;92.60;;;;;;4916473;29;20029;-70
2021/12/28 04:42:41;;;;;;;9.93;6.67;;;7.70;92.50;;;;;;4919600;29;20036;-70
2021/12/28 04:45:10;;;;;;;11.67;7.13;;;7.70;92.50;;;;;;4919557;29;20465;-70
2021/12/28 04:47:36;;;;;;;11.97;6.63;;;7.70;92.60;;;;;;4919737;29;20020;-70
2021/12/28 04:50:05;;;;;;;11.47;6.77;;;7.60;92.70;;;;;;4919674;29;20026;-71
2021/12/28 04:52:35;;;;;;;9.13;6.73;;;7.60;92.70;;;;;;4919352;29;20032;-70
2021/12/28 04:55:01;;;;;;;9.90;6.83;;;7.60;92.80;;;;;;4919229;29;20032;-71
2021/12/28 04:57:26;;;;;;;10.07;7.10;;;7.70;92.70;;;;;;4918070;29;20099;-70
2021/12/28 04:59:52;;;;;;;10.40;6.40;;;7.60;92.60;;;;;;4919419;29;20072;-70
2021/12/28 05:02:18;;;;;;;10.97;7.00;;;7.70;92.60;;;;;;4919382;29;20099;-70
2021/12/28 05:04:44;;;;;;;9.30;6.90;;;7.60;92.50;;;;;;4919183;29;20024;-70
2021/12/28 05:07:09;;;;;;;10.77;7.17;;;7.60;92.50;;;;;;4919082;29;20028;-70
2021/12/28 05:09:35;;;;;;;10.53;7.03;;;7.60;92.70;;;;;;4919321;29;20060;-70
2021/12/28 05:12:02;;;;;;;12.70;7.50;;;7.60;92.80;;;;;;4919230;29;20034;-70
2021/12/28 05:14:27;;;;;;;11.30;7.70;;;7.60;92.80;;;;;;4918938;29;20032;-71
2021/12/28 05:16:53;;;;;;;13.03;8.03;;;7.60;93.00;;;;;;4919168;29;20036;-70
2021/12/28 05:19:19;;;;;;;12.73;8.63;;;7.60;93.10;;;;;;4919016;29;20032;-70
2021/12/28 05:21:44;;;;;;;13.73;8.50;;;7.60;93.00;;;;;;4919291;29;20063;-70
2021/12/28 05:24:10;;;;;;;14.77;8.87;;;7.60;93.00;;;;;;4918949;29;20039;-70
2021/12/28 05:26:36;;;;;;;13.07;8.00;;;7.70;92.80;;;;;;4918900;29;20110;-70
2021/12/28 05:29:02;;;;;;;11.63;8.17;;;7.70;92.70;;;;;;4918928;29;20537;-70
2021/12/28 05:31:30;;;;;;;11.93;8.50;;;7.70;92.60;;;;;;4918842;29;20027;-69
2021/12/28 05:33:56;;;;;;;13.93;8.17;;;7.70;92.50;;;;;;4918719;29;20556;-70
2021/12/28 05:36:23;;;;;;;14.60;8.30;;;7.70;92.50;;;;;;4918556;29;20026;-70
2021/12/28 05:38:50;;;;;;;12.67;8.10;;;7.70;92.60;;;;;;4918880;29;20075;-71
2021/12/28 05:41:16;;;;;;;13.57;8.80;;;7.60;92.70;;;;;;4918839;29;20039;-70
2021/12/28 05:43:41;;;;;;;15.73;8.27;;;7.60;92.90;;;;;;4918565;29;20040;-70
2021/12/28 05:46:07;;;;;;;12.77;8.53;;;7.60;93.00;;;;;;4918450;29;20424;-70
2021/12/28 05:48:33;;;;;;;13.60;8.47;;;7.60;93.00;;;;;;4918534;29;20028;-70
2021/12/28 05:50:59;;;;;;;12.03;7.77;;;7.60;93.00;;;;;;4918516;29;20068;-70
2021/12/28 05:53:24;;;;;;;13.63;8.87;;;7.60;93.10;;;;;;4917597;29;20059;-70
2021/12/28 05:55:50;;;;;;;13.53;9.13;;;7.60;93.10;;;;;;4918532;29;20080;-70
2021/12/28 05:58:16;;;;;;;14.40;8.77;;;7.60;93.10;;;;;;4918516;29;20032;-69
2021/12/28 06:00:42;;;;;;;13.43;8.53;;;7.60;93.10;;;;;;4918288;29;20478;-69
2021/12/28 06:03:08;;;;;;;14.40;8.47;;;7.70;92.80;;;;;;4918290;29;20044;-70
2021/12/28 06:05:34;;;;;;;17.67;9.27;;;7.70;92.60;;;;;;4918272;29;20035;-69
2021/12/28 06:08:00;;;;;;;16.40;7.93;;;7.70;92.50;;;;;;4918224;29;20033;-70
2021/12/28 06:10:25;;;;;;;14.53;8.60;;;7.70;92.40;;;;;;4918200;29;20504;-70
2021/12/28 06:12:51;;;;;;;15.50;8.97;;;7.70;92.40;;;;;;4918225;29;20036;-69
2021/12/28 06:15:17;;;;;;;15.43;8.67;;;7.70;92.50;;;;;;4918171;29;20032;-70
2021/12/28 06:17:43;;;;;;;16.03;8.73;;;7.70;92.50;;;;;;4917974;29;20056;-70
2021/12/28 06:20:09;;;;;;;15.63;8.77;;;7.70;92.40;;;;;;4918219;29;20051;-70
2021/12/28 06:22:35;;;;;;;17.40;9.47;;;7.60;92.50;;;;;;4917742;29;20439;-70
2021/12/28 06:25:02;;;;;;;15.60;8.57;;;7.60;92.50;;;;;;4917852;29;20137;-70
2021/12/28 06:27:28;;;;;;;15.07;8.87;;;7.60;92.60;;;;;;4918011;29;20028;-70
2021/12/28 06:29:53;;;;;;;15.77;8.50;;;7.60;92.70;;;;;;4917864;29;20396;-70
2021/12/28 06:32:19;;;;;;;13.87;7.83;;;7.60;92.50;;;;;;4917903;29;20040;-70
2021/12/28 06:34:45;;;;;;;14.03;7.93;;;7.50;92.70;;;;;;4917924;29;20042;-69
2021/12/28 06:37:11;;;;;;;12.87;8.13;;;7.40;92.60;;;;;;4917706;29;20028;-70
2021/12/28 06:39:36;;;;;;;15.33;9.60;;;7.40;92.70;;;;;;4917785;29;20036;-70
2021/12/28 06:42:03;;;;;;;14.67;9.30;;;7.50;92.80;;;;;;4917429;29;20028;-70
2021/12/28 06:44:28;;;;;;;14.80;9.37;;;7.50;92.70;;;;;;4917247;29;20044;-70
2021/12/28 06:46:54;;;;;;;15.63;8.83;;;7.50;92.90;;;;;;4917470;29;20028;-70
2021/12/28 06:49:20;;;;;;;20.00;9.40;;;7.50;92.80;;;;;;4917512;29;20125;-70
2021/12/28 06:51:45;;;;;;;16.27;9.57;;;7.50;92.80;;;;;;4917431;29;20397;-70
2021/12/28 06:54:11;;;;;;;13.80;9.10;;;7.60;92.90;;;;;;4917082;29;20055;-71
2021/12/28 06:56:37;;;;;;;17.43;8.83;;;7.60;92.70;;;;;;4917485;29;20109;-70
2021/12/28 06:59:03;;;;;;;16.80;9.37;;;7.60;92.60;;;;;;4917029;29;20032;-70
2021/12/28 07:01:29;;;;;;;12.60;8.53;;;7.60;92.80;;;;;;4917475;29;20098;-70
2021/12/28 07:03:55;;;;;;;14.97;9.33;;;7.60;92.80;;;;;;4916666;29;20055;-70
2021/12/28 07:06:23;;;;;;;15.70;9.70;;;7.60;92.90;;;;;;4917371;29;20029;-70
2021/12/28 07:08:49;;;;;;;18.13;9.30;;;7.50;92.90;;;;;;4915709;29;20389;-70
2021/12/28 07:11:16;;;;;;;17.57;9.67;;;7.60;93.30;;;;;;4917051;29;20054;-70
2021/12/28 07:13:42;;;;;;;16.07;9.63;;;7.60;93.10;;;;;;4916964;29;20043;-70
2021/12/28 07:16:07;;;;;;;17.27;9.80;;;7.60;93.10;;;;;;4917021;29;20625;-70
2021/12/28 07:18:33;;;;;;;15.47;8.90;;;7.70;93.10;;;;;;4917345;29;20036;-70
2021/12/28 07:21:00;;;;;;;14.60;8.70;;;7.70;93.00;;;;;;4917220;29;20039;-69
2021/12/28 07:23:26;;;;;;;14.90;8.70;;;7.70;92.90;;;;;;4917110;29;20043;-70
2021/12/28 07:25:53;;;;;;;16.20;9.20;;;7.70;92.90;;;;;;4917127;29;20389;-70
2021/12/28 07:28:19;;;;;;;14.60;8.30;;;7.70;92.80;;;;;;4917060;29;20031;-70
2021/12/28 07:30:45;;;;;;;14.67;8.20;;;7.80;92.80;;;;;;4917051;29;20032;-70
2021/12/28 07:33:11;;;;;;;16.87;7.10;;;7.80;92.80;;;;;;4916837;29;20028;-74
2021/12/28 07:35:37;;;;;;;15.90;7.87;;;7.80;92.70;;;;;;4914378;29;20021;-73
2021/12/28 07:38:02;;;;;;;13.13;7.57;;;7.80;92.60;;;;;;4915595;29;20103;-72
2021/12/28 07:40:28;;;;;;;15.63;7.67;;;7.80;92.40;;;;;;4916833;29;20031;-72
2021/12/28 07:42:54;;;;;;;16.50;8.63;;;7.90;92.40;;;;;;3767394;29;20572;-72
2021/12/28 07:45:20;;;;;;;17.33;8.30;;;7.90;92.40;;;;;;3617355;29;20710;-72
2021/12/28 07:47:46;;;;;;;18.23;7.73;;;7.90;92.30;;;;;;4917162;29;20028;-72
2021/12/28 07:50:14;;;;;;;17.23;8.13;;;7.90;92.30;;;;;;4917069;29;20023;-72
2021/12/28 07:52:40;;;;;;;18.77;8.83;;;7.90;92.10;;;;;;4916594;29;20028;-71
2021/12/28 07:55:07;;;;;;;24.00;10.47;;;7.90;92.00;;;;;;4916881;29;20032;-74
2021/12/28 07:57:34;;;;;;;16.33;9.00;;;8.00;91.90;;;;;;4916925;29;20035;-73
2021/12/28 08:00:00;;;;;;;18.93;8.53;;;8.00;91.80;;;;;;4916990;29;20483;-74
2021/12/28 08:02:26;;;;;;;16.17;7.90;;;8.00;91.70;;;;;;4916663;29;20032;-72
2021/12/28 08:04:52;;;;;;;13.73;8.07;;;8.00;91.70;;;;;;4916648;29;20103;-73
2021/12/28 08:07:17;;;;;;;18.87;8.40;;;8.00;91.80;;;;;;4916480;29;20035;-72
2021/12/28 08:09:43;;;;;;;13.73;8.50;;;8.00;91.80;;;;;;4916587;29;20443;-73
2021/12/28 08:12:09;;;;;;;16.60;9.20;;;8.00;91.80;;;;;;4916504;29;20407;-72
2021/12/28 08:14:35;;;;;;;19.73;10.50;;;8.00;92.10;;;;;;4916699;29;20042;-72
2021/12/28 08:17:01;;;;;;;18.73;10.60;;;8.00;92.00;;;;;;4918762;29;20625;-72
2021/12/28 08:19:26;;;;;;;21.17;10.60;;;8.10;92.00;;;;;;4918797;29;20021;-79
2021/12/28 08:21:52;;;;;;;19.60;11.87;;;8.10;92.00;;;;;;4918968;29;20025;-72
2021/12/28 08:24:18;;;;;;;20.00;13.20;;;8.10;92.00;;;;;;4919028;29;20029;-72
2021/12/28 08:26:43;;;;;;;18.50;12.63;;;8.10;92.00;;;;;;4919060;29;20024;-72
2021/12/28 08:29:09;;;;;;;20.20;13.67;;;8.10;91.90;;;;;;4918852;29;20028;-72
2021/12/28 08:31:35;;;;;;;20.13;12.83;;;8.10;92.00;;;;;;4920203;29;20042;-72
2021/12/28 08:34:01;;;;;;;20.00;12.40;;;8.10;91.90;;;;;;4920107;29;20028;-72
2021/12/28 08:36:26;;;;;;;17.10;11.63;;;8.20;91.90;;;;;;4920296;29;20156;-72
2021/12/28 08:38:52;;;;;;;19.07;12.17;;;8.20;91.80;;;;;;4919816;29;20035;-72
2021/12/28 08:41:18;;;;;;;19.77;12.10;;;8.20;91.80;;;;;;4919699;29;20434;-72
2021/12/28 08:43:45;;;;;;;18.17;13.90;;;8.20;91.90;;;;;;4919548;29;20047;-72
2021/12/28 08:46:11;;;;;;;21.10;14.17;;;8.20;91.90;;;;;;4919814;29;20032;-72
2021/12/28 08:48:37;;;;;;;20.37;13.80;;;8.20;91.80;;;;;;4919585;29;20043;-72
2021/12/28 08:51:02;;;;;;;19.53;14.90;;;8.20;91.90;;;;;;4919695;29;20052;-72
2021/12/28 08:53:28;;;;;;;19.30;14.43;;;8.30;91.80;;;;;;4919226;29;20052;-72
2021/12/28 08:55:54;;;;;;;22.07;15.50;;;8.30;92.70;;;;;;4919325;29;20047;-73
2021/12/28 08:58:19;;;;;;;20.87;13.67;;;8.30;93.00;;;;;;4919661;29;20032;-75
2021/12/28 09:00:45;;;;;;;19.20;13.30;;;8.30;92.80;;;;;;4919359;29;20307;-76
2021/12/28 09:03:11;;;;;;;18.23;12.40;;;8.40;92.80;;;;;;4919311;29;20071;-75
2021/12/28 09:05:37;;;;;;;18.67;12.63;;;8.50;92.30;;;;;;4919278;29;20129;-76
2021/12/28 09:08:08;;;;;;;16.70;12.07;;;8.60;91.70;;;;;;4919309;29;20397;-75
2021/12/28 09:10:35;;;;;;;16.67;12.20;;;8.70;91.50;;;;;;4919347;29;20477;-76
2021/12/28 09:13:02;;;;;;;17.50;13.77;;;8.80;91.50;;;;;;4919520;29;20389;-75
2021/12/28 09:15:28;;;;;;;18.73;13.70;;;8.80;91.70;;;;;;4919888;29;20032;-76
2021/12/28 09:17:54;;;;;;;17.87;13.43;;;8.80;91.70;;;;;;4919394;29;20028;-74
2021/12/28 09:20:23;;;;;;;17.73;13.80;;;8.80;91.60;;;;;;4919340;29;20030;-74
2021/12/28 09:22:51;;;;;;;14.33;12.00;;;8.90;91.80;;;;;;4918671;29;20131;-69
2021/12/28 09:25:17;;;;;;;16.60;11.20;;;8.90;91.60;;;;;;4919092;29;20413;-75
2021/12/28 09:27:44;;;;;;;13.30;9.67;;;8.90;91.40;;;;;;4918351;29;20115;-76
2021/12/28 09:30:10;;;;;;;16.30;10.67;;;9.00;91.30;;;;;;4919265;29;20032;-74
2021/12/28 09:32:36;;;;;;;16.50;9.57;;;8.90;91.20;;;;;;4917962;29;20032;-74
2021/12/28 09:35:02;;;;;;;12.53;9.23;;;9.00;91.20;;;;;;4919097;29;20039;-76
2021/12/28 09:37:28;;;;;;;13.60;9.60;;;9.00;91.10;;;;;;4918713;29;20084;-75
2021/12/28 09:39:54;;;;;;;19.90;10.20;;;9.00;91.20;;;;;;4919080;29;20447;-75
2021/12/28 09:42:21;;;;;;;16.67;10.47;;;9.00;91.10;;;;;;4918604;29;20051;-75
2021/12/28 09:44:49;;;;;;;14.63;10.10;;;9.00;91.00;;;;;;4918647;29;20035;-75
2021/12/28 09:47:16;;;;;;;13.27;9.13;;;9.00;91.00;;;;;;4918656;29;20036;-73
2021/12/28 09:49:42;;;;;;;15.43;10.53;;;9.00;90.80;;;;;;4918690;29;20088;-76
2021/12/28 09:52:08;;;;;;;14.37;9.27;;;9.00;91.00;;;;;;4918496;29;20048;-74
2021/12/28 09:54:34;;;;;;;12.87;8.97;;;9.00;90.90;;;;;;4918332;29;20060;-76
2021/12/28 09:57:01;;;;;;;13.50;9.23;;;9.10;90.80;;;;;;4918087;29;20043;-73
2021/12/28 09:59:31;;;;;;;15.87;9.23;;;9.10;90.60;;;;;;4917332;29;20036;-75
2021/12/28 10:01:59;;;;;;;13.77;9.30;;;9.10;90.50;;;;;;4918618;29;20039;-76
2021/12/28 10:04:26;;;;;;;16.50;9.13;;;9.10;90.50;;;;;;4917353;29;20036;-75
2021/12/28 10:06:52;;;;;;;16.30;9.50;;;9.10;90.40;;;;;;4917032;29;20433;-74
2021/12/28 14:48:21;;;;;;;22.20;16.53;;;9.60;91.90;;;;;;1961562;29;20077;-82
2021/12/28 14:50:47;;;;;;;19.77;16.50;;;9.60;91.90;;;;;;4843018;29;20030;-80
2021/12/28 14:53:19;;;;;;;21.43;16.90;;;9.50;92.00;;;;;;4843201;29;20059;-82
2021/12/28 14:55:44;;;;;;;21.83;17.30;;;9.60;92.10;;;;;;4843134;29;20030;-78
2021/12/28 14:58:15;;;;;;;21.23;16.27;;;9.50;92.50;;;;;;4843056;29;20038;-80
2021/12/28 15:00:47;;;;;;;22.57;16.07;;;9.60;93.10;;;;;;4843132;29;20022;-80
2021/12/28 15:03:22;;;;;;;20.77;16.75;;;9.50;93.30;;;;;;4841843;29;20042;-80
2021/12/28 15:06:02;;;;;;;21.20;17.63;;;9.50;93.50;;;;;;4843060;29;20108;-79
2021/12/28 15:08:33;;;;;;;21.37;16.73;;;9.40;93.50;;;;;;4842933;29;20037;-79
2021/12/28 15:10:59;;;;;;;21.47;16.43;;;9.50;93.20;;;;;;4842804;29;20062;-81
2021/12/28 15:13:29;;;;;;;26.10;16.80;;;9.40;93.40;;;;;;4843081;29;20030;-80
2021/12/28 15:15:55;;;;;;;25.13;17.10;;;9.40;93.50;;;;;;4857060;29;20033;-79
2021/12/28 15:18:21;;;;;;;26.13;17.03;;;9.40;93.40;;;;;;4840509;29;20502;-76
2021/12/28 15:20:48;;;;;;;21.53;16.90;;;9.50;93.30;;;;;;4840104;29;20026;-81
2021/12/28 15:23:14;;;;;;;22.73;16.90;;;9.40;93.10;;;;;;4839935;29;20538;-81
2021/12/28 15:25:40;;;;;;;25.43;16.80;;;9.50;93.00;;;;;;4841908;29;20086;-82
2021/12/28 15:28:07;;;;;;;21.97;16.53;;;9.50;93.00;;;;;;4841347;29;20324;-78
2021/12/28 15:30:41;;;;;;;19.30;15.83;;;9.50;92.80;;;;;;4840993;29;20144;-82
2021/12/28 15:33:07;;;;;;;20.23;16.07;;;9.50;92.70;;;;;;4841580;29;20521;-80
2021/12/28 15:35:38;;;;;;;20.00;15.73;;;9.50;92.60;;;;;;4842040;29;20113;-76
2021/12/28 15:38:05;;;;;;;21.90;15.60;;;9.50;92.80;;;;;;4842145;29;20078;-81
2021/12/28 15:40:34;;;;;;;16.77;13.40;;;9.50;92.80;;;;;;4841738;29;20395;-82
2021/12/28 15:43:00;;;;;;;20.73;14.97;;;9.50;92.70;;;;;;4841315;29;20030;-81
2021/12/28 15:45:26;;;;;;;19.33;14.57;;;9.50;92.60;;;;;;4842201;29;20022;-82
2021/12/28 15:47:52;;;;;;;24.23;14.43;;;9.40;92.60;;;;;;4842699;29;20037;-80
2021/12/28 15:50:18;;;;;;;20.30;13.93;;;9.40;92.70;;;;;;4842200;29;20057;-82
2021/12/28 15:52:44;;;;;;;18.17;14.63;;;9.40;92.50;;;;;;4842359;29;20038;-82
2021/12/28 15:55:10;;;;;;;22.77;16.40;;;9.40;92.60;;;;;;4842719;29;20033;-83
2021/12/28 15:57:36;;;;;;;20.73;16.27;;;9.40;92.70;;;;;;4842612;29;20026;-83
2021/12/28 16:00:05;;;;;;;22.23;16.53;;;9.40;92.60;;;;;;4842353;29;20026;-82
2021/12/28 16:02:31;;;;;;;21.50;15.33;;;9.40;92.70;;;;;;4842583;29;20037;-81
2021/12/28 16:04:57;;;;;;;19.77;15.90;;;9.30;92.90;;;;;;4842669;29;20034;-82
2021/12/28 16:07:22;;;;;;;23.77;16.07;;;9.30;92.80;;;;;;4842255;29;20034;-82
2021/12/28 16:09:48;;;;;;;17.73;13.83;;;9.30;92.70;;;;;;4842225;29;20368;-82
2021/12/28 16:12:15;;;;;;;16.43;13.37;;;9.30;92.60;;;;;;4842382;29;20041;-82
2021/12/28 16:14:42;;;;;;;22.60;15.13;;;9.40;92.50;;;;;;4842252;29;20045;-81
2021/12/28 16:17:08;;;;;;;19.50;14.70;;;9.30;92.50;;;;;;4842315;29;20041;-82
2021/12/28 16:19:34;;;;;;;24.47;15.43;;;9.40;92.40;;;;;;4842011;29;20037;-83
2021/12/28 16:22:00;;;;;;;18.57;13.53;;;9.30;92.40;;;;;;4841190;29;20037;-82
2021/12/28 16:24:26;;;;;;;17.80;13.40;;;9.30;92.40;;;;;;4841724;29;20052;-82
2021/12/28 16:26:53;;;;;;;20.17;13.57;;;9.30;92.70;;;;;;4842618;29;20387;-76
2021/12/28 16:29:19;;;;;;;17.13;13.40;;;9.30;92.60;;;;;;4842077;29;20479;-76
2021/12/28 16:31:45;;;;;;;21.03;14.73;;;9.30;92.50;;;;;;4842026;29;20026;-80
2021/12/28 16:34:11;;;;;;;19.77;16.00;;;9.20;92.70;;;;;;4841885;29;20091;-79
2021/12/28 16:36:42;;;;;;;23.53;17.40;;;9.20;93.10;;;;;;4841870;29;20530;-85
2021/12/28 16:39:14;;;;;;;24.90;17.47;;;9.20;93.30;;;;;;4845211;29;20479;-88
2021/12/28 16:41:41;;;;;;;23.95;15.02;;;9.10;93.20;;;;;;4845081;29;20025;-91
2021/12/28 16:44:07;;;;;;;20.03;15.03;;;9.20;93.30;;;;;;4844599;29;20053;-83
2021/12/28 16:46:34;;;;;;;19.83;14.97;;;9.10;93.40;;;;;;4845758;29;20030;-84
2021/12/28 16:49:01;;;;;;;22.87;15.23;;;9.10;93.50;;;;;;4845134;29;20057;-88
2021/12/28 16:51:27;;;;;;;21.33;15.73;;;9.10;93.30;;;;;;4845535;29;20030;-86
2021/12/28 16:53:53;;;;;;;23.60;16.83;;;9.10;93.40;;;;;;4844769;29;20041;-85
2021/12/28 16:56:19;;;;;;;25.40;16.90;;;9.10;93.50;;;;;;4845308;29;20106;-85
2021/12/28 16:58:45;;;;;;;24.63;17.23;;;9.10;93.50;;;;;;4845200;29;20045;-86
2021/12/28 17:01:11;;;;;;;26.83;17.67;;;9.10;93.50;;;;;;4845525;29;20034;-86
2021/12/28 17:03:36;;;;;;;22.63;15.87;;;9.10;93.00;;;;;;4845396;29;20037;-87
2021/12/28 17:06:02;;;;;;;22.07;15.67;;;9.20;93.10;;;;;;4846293;29;20038;-89
2021/12/28 17:08:29;;;;;;;25.17;16.87;;;9.10;93.10;;;;;;4845960;29;20108;-89
2021/12/28 17:10:55;;;;;;;22.13;15.60;;;9.20;93.00;;;;;;4845708;29;20033;-87
2021/12/28 17:13:24;;;;;;;19.33;16.07;;;9.10;93.00;;;;;;4847028;29;20036;-86
2021/12/28 17:15:51;;;;;;;23.90;16.37;;;9.10;93.00;;;;;;4846414;29;20053;-91
2021/12/28 17:18:17;;;;;;;23.77;16.47;;;9.10;93.10;;;;;;4845584;29;20041;-86